sensor_id;sensor_type;location;lat;lon;timestamp;pressure;altitude;pressure_sealevel;temperature;humidity
77153;BME280;66124;51.146;17.072;2023-04-25T00:02:16;99214.45;;;9.82;69.10
77153;BME280;66124;51.146;17.072;2023-04-25T00:04:45;99209.25;;;9.81;68.95
77153;BME280;66124;51.146;17.072;2023-04-25T00:07:15;99209.42;;;9.79;69.06
77153;BME280;66124;51.146;17.072;2023-04-25T00:09:46;99207.70;;;9.76;68.94
77153;BME280;66124;51.146;17.072;2023-04-25T00:12:16;99208.84;;;9.74;69.06
77153;BME280;66124;51.146;17.072;2023-04-25T00:14:45;99215.00;;;9.72;69.10
77153;BME280;66124;51.146;17.072;2023-04-25T00:17:14;99209.40;;;9.71;69.13
77153;BME280;66124;51.146;17.072;2023-04-25T00:19:44;99211.23;;;9.69;68.94
77153;BME280;66124;51.146;17.072;2023-04-25T00:22:13;99214.05;;;9.67;68.84
77153;BME280;66124;51.146;17.072;2023-04-25T00:24:43;99212.22;;;9.67;68.86
77153;BME280;66124;51.146;17.072;2023-04-25T00:27:12;99206.87;;;9.65;68.80
77153;BME280;66124;51.146;17.072;2023-04-25T00:29:42;99212.02;;;9.65;68.82
77153;BME280;66124;51.146;17.072;2023-04-25T00:32:11;99214.52;;;9.64;68.84
77153;BME280;66124;51.146;17.072;2023-04-25T00:34:39;99217.80;;;9.63;68.78
77153;BME280;66124;51.146;17.072;2023-04-25T00:37:07;99218.12;;;9.62;68.72
77153;BME280;66124;51.146;17.072;2023-04-25T00:47:08;99223.66;;;9.61;68.80
77153;BME280;66124;51.146;17.072;2023-04-25T00:49:37;99221.63;;;9.57;68.84
77153;BME280;66124;51.146;17.072;2023-04-25T00:52:07;99221.34;;;9.55;68.62
77153;BME280;66124;51.146;17.072;2023-04-25T00:54:36;99222.91;;;9.53;68.67
77153;BME280;66124;51.146;17.072;2023-04-25T00:57:06;99226.18;;;9.53;68.67
77153;BME280;66124;51.146;17.072;2023-04-25T00:59:37;99227.27;;;9.51;68.57
77153;BME280;66124;51.146;17.072;2023-04-25T01:02:07;99222.65;;;9.50;68.50
77153;BME280;66124;51.146;17.072;2023-04-25T01:04:36;99221.84;;;9.48;68.47
77153;BME280;66124;51.146;17.072;2023-04-25T01:07:06;99223.65;;;9.45;68.40
77153;BME280;66124;51.146;17.072;2023-04-25T01:09:36;99223.98;;;9.43;68.48
77153;BME280;66124;51.146;17.072;2023-04-25T01:12:06;99226.27;;;9.40;68.34
77153;BME280;66124;51.146;17.072;2023-04-25T01:14:36;99226.61;;;9.39;68.54
77153;BME280;66124;51.146;17.072;2023-04-25T01:17:06;99229.17;;;9.36;68.31
77153;BME280;66124;51.146;17.072;2023-04-25T01:19:35;99228.38;;;9.33;68.19
77153;BME280;66124;51.146;17.072;2023-04-25T01:22:05;99230.70;;;9.32;68.24
77153;BME280;66124;51.146;17.072;2023-04-25T01:24:35;99230.01;;;9.30;68.18
77153;BME280;66124;51.146;17.072;2023-04-25T01:27:06;99229.20;;;9.28;68.24
77153;BME280;66124;51.146;17.072;2023-04-25T01:29:36;99228.30;;;9.27;68.19
77153;BME280;66124;51.146;17.072;2023-04-25T01:32:07;99228.89;;;9.25;68.03
77153;BME280;66124;51.146;17.072;2023-04-25T01:34:36;99226.29;;;9.22;68.08
77153;BME280;66124;51.146;17.072;2023-04-25T01:37:06;99235.42;;;9.19;67.95
77153;BME280;66124;51.146;17.072;2023-04-25T01:39:35;99242.29;;;9.16;67.81
77153;BME280;66124;51.146;17.072;2023-04-25T01:42:05;99241.48;;;9.12;67.92
77153;BME280;66124;51.146;17.072;2023-04-25T01:44:34;99239.29;;;9.09;67.78
77153;BME280;66124;51.146;17.072;2023-04-25T01:47:04;99241.84;;;9.07;67.91
77153;BME280;66124;51.146;17.072;2023-04-25T01:49:33;99239.95;;;9.06;67.65
77153;BME280;66124;51.146;17.072;2023-04-25T01:52:03;99241.73;;;9.04;68.09
77153;BME280;66124;51.146;17.072;2023-04-25T01:54:32;99242.41;;;9.01;67.74
77153;BME280;66124;51.146;17.072;2023-04-25T01:57:02;99238.79;;;8.98;67.88
77153;BME280;66124;51.146;17.072;2023-04-25T01:59:30;99239.86;;;8.97;67.72
77153;BME280;66124;51.146;17.072;2023-04-25T02:04:42;99242.09;;;8.97;67.82
77153;BME280;66124;51.146;17.072;2023-04-25T02:07:11;99245.23;;;8.93;67.66
77153;BME280;66124;51.146;17.072;2023-04-25T02:09:40;99248.14;;;8.89;67.68
77153;BME280;66124;51.146;17.072;2023-04-25T02:12:11;99250.20;;;8.87;67.78
77153;BME280;66124;51.146;17.072;2023-04-25T02:14:40;99249.49;;;8.84;67.71
77153;BME280;66124;51.146;17.072;2023-04-25T02:17:10;99255.42;;;8.82;67.55
77153;BME280;66124;51.146;17.072;2023-04-25T02:19:39;99252.48;;;8.79;67.64
77153;BME280;66124;51.146;17.072;2023-04-25T02:22:09;99258.48;;;8.76;67.82
77153;BME280;66124;51.146;17.072;2023-04-25T02:24:38;99253.05;;;8.73;67.79
77153;BME280;66124;51.146;17.072;2023-04-25T02:27:08;99247.40;;;8.70;67.80
77153;BME280;66124;51.146;17.072;2023-04-25T02:29:37;99248.08;;;8.68;67.91
77153;BME280;66124;51.146;17.072;2023-04-25T02:32:06;99248.42;;;8.65;68.02
77153;BME280;66124;51.146;17.072;2023-04-25T02:34:36;99246.98;;;8.61;68.20
77153;BME280;66124;51.146;17.072;2023-04-25T02:37:05;99245.05;;;8.59;68.05
77153;BME280;66124;51.146;17.072;2023-04-25T02:39:35;99240.80;;;8.52;68.29
77153;BME280;66124;51.146;17.072;2023-04-25T02:42:04;99245.39;;;8.50;68.31
77153;BME280;66124;51.146;17.072;2023-04-25T02:44:34;99246.18;;;8.48;68.45
77153;BME280;66124;51.146;17.072;2023-04-25T02:47:03;99243.48;;;8.45;68.68
77153;BME280;66124;51.146;17.072;2023-04-25T02:49:33;99245.60;;;8.42;68.56
77153;BME280;66124;51.146;17.072;2023-04-25T02:52:02;99242.66;;;8.40;68.84
77153;BME280;66124;51.146;17.072;2023-04-25T02:54:32;99245.45;;;8.37;68.94
77153;BME280;66124;51.146;17.072;2023-04-25T02:57:01;99244.16;;;8.35;69.00
77153;BME280;66124;51.146;17.072;2023-04-25T02:59:31;99246.39;;;8.34;68.92
77153;BME280;66124;51.146;17.072;2023-04-25T03:02:01;99244.15;;;8.32;69.02
77153;BME280;66124;51.146;17.072;2023-04-25T03:04:30;99242.66;;;8.30;69.03
77153;BME280;66124;51.146;17.072;2023-04-25T03:07:00;99243.19;;;8.29;69.23
77153;BME280;66124;51.146;17.072;2023-04-25T03:09:29;99239.84;;;8.26;69.18
77153;BME280;66124;51.146;17.072;2023-04-25T03:11:59;99238.39;;;8.25;69.23
77153;BME280;66124;51.146;17.072;2023-04-25T03:14:26;99239.52;;;8.24;69.29
77153;BME280;66124;51.146;17.072;2023-04-25T03:16:54;99238.41;;;8.23;69.41
77153;BME280;66124;51.146;17.072;2023-04-25T03:24:31;99239.64;;;8.25;69.53
77153;BME280;66124;51.146;17.072;2023-04-25T03:27:00;99239.05;;;8.22;69.56
77153;BME280;66124;51.146;17.072;2023-04-25T03:29:30;99237.27;;;8.22;69.60
77153;BME280;66124;51.146;17.072;2023-04-25T03:31:59;99242.13;;;8.23;69.66
77153;BME280;66124;51.146;17.072;2023-04-25T03:34:28;99242.53;;;8.23;69.68
77153;BME280;66124;51.146;17.072;2023-04-25T03:36:59;99248.43;;;8.23;69.74
77153;BME280;66124;51.146;17.072;2023-04-25T03:39:29;99251.00;;;8.22;69.70
77153;BME280;66124;51.146;17.072;2023-04-25T03:41:58;99254.88;;;8.21;69.78
77153;BME280;66124;51.146;17.072;2023-04-25T03:44:28;99251.56;;;8.19;69.98
77153;BME280;66124;51.146;17.072;2023-04-25T03:46:57;99258.81;;;8.17;70.02
77153;BME280;66124;51.146;17.072;2023-04-25T03:49:27;99254.29;;;8.14;70.03
77153;BME280;66124;51.146;17.072;2023-04-25T03:51:56;99251.83;;;8.10;70.02
77153;BME280;66124;51.146;17.072;2023-04-25T03:54:26;99256.88;;;8.11;70.19
77153;BME280;66124;51.146;17.072;2023-04-25T03:56:55;99256.48;;;8.10;70.28
77153;BME280;66124;51.146;17.072;2023-04-25T03:59:24;99259.71;;;8.08;70.40
77153;BME280;66124;51.146;17.072;2023-04-25T04:01:54;99260.11;;;8.08;70.44
77153;BME280;66124;51.146;17.072;2023-04-25T04:04:23;99263.40;;;8.08;70.51
77153;BME280;66124;51.146;17.072;2023-04-25T04:06:53;99265.12;;;8.07;70.38
77153;BME280;66124;51.146;17.072;2023-04-25T04:09:23;99261.67;;;8.07;70.34
77153;BME280;66124;51.146;17.072;2023-04-25T04:11:52;99268.45;;;8.08;70.43
77153;BME280;66124;51.146;17.072;2023-04-25T04:14:22;99271.08;;;8.10;70.42
77153;BME280;66124;51.146;17.072;2023-04-25T04:16:52;99269.59;;;8.09;70.41
77153;BME280;66124;51.146;17.072;2023-04-25T04:19:22;99271.24;;;8.10;70.38
77153;BME280;66124;51.146;17.072;2023-04-25T04:21:51;99271.73;;;8.11;70.33
77153;BME280;66124;51.146;17.072;2023-04-25T04:24:21;99275.15;;;8.12;70.46
77153;BME280;66124;51.146;17.072;2023-04-25T04:26:50;99274.82;;;8.12;70.31
77153;BME280;66124;51.146;17.072;2023-04-25T04:29:20;99281.21;;;8.13;70.72
77153;BME280;66124;51.146;17.072;2023-04-25T04:31:50;99283.59;;;8.13;70.55
77153;BME280;66124;51.146;17.072;2023-04-25T04:34:20;99277.98;;;8.12;70.42
77153;BME280;66124;51.146;17.072;2023-04-25T04:36:48;99277.60;;;8.14;70.35
77153;BME280;66124;51.146;17.072;2023-04-25T04:44:45;99278.14;;;8.21;70.51
77153;BME280;66124;51.146;17.072;2023-04-25T04:47:15;99284.95;;;8.25;70.47
77153;BME280;66124;51.146;17.072;2023-04-25T04:49:44;99290.73;;;8.28;70.33
77153;BME280;66124;51.146;17.072;2023-04-25T04:52:14;99289.30;;;8.29;70.07
77153;BME280;66124;51.146;17.072;2023-04-25T04:54:43;99289.98;;;8.31;69.98
77153;BME280;66124;51.146;17.072;2023-04-25T04:57:14;99287.23;;;8.32;70.06
77153;BME280;66124;51.146;17.072;2023-04-25T04:59:43;99288.74;;;8.35;69.95
77153;BME280;66124;51.146;17.072;2023-04-25T05:02:13;99288.75;;;8.37;69.87
77153;BME280;66124;51.146;17.072;2023-04-25T05:04:42;99287.85;;;8.40;69.89
77153;BME280;66124;51.146;17.072;2023-04-25T05:07:12;99288.21;;;8.44;69.90
77153;BME280;66124;51.146;17.072;2023-04-25T05:09:42;99290.64;;;8.49;69.72
77153;BME280;66124;51.146;17.072;2023-04-25T05:12:12;99288.16;;;8.52;69.69
77153;BME280;66124;51.146;17.072;2023-04-25T05:14:41;99289.63;;;8.54;69.54
77153;BME280;66124;51.146;17.072;2023-04-25T05:17:11;99292.70;;;8.57;69.51
77153;BME280;66124;51.146;17.072;2023-04-25T05:19:40;99292.02;;;8.63;69.44
77153;BME280;66124;51.146;17.072;2023-04-25T05:22:09;99287.52;;;8.68;69.48
77153;BME280;66124;51.146;17.072;2023-04-25T05:24:39;99289.80;;;8.73;69.38
77153;BME280;66124;51.146;17.072;2023-04-25T05:27:08;99289.92;;;8.78;69.11
77153;BME280;66124;51.146;17.072;2023-04-25T05:29:37;99291.15;;;8.80;68.81
77153;BME280;66124;51.146;17.072;2023-04-25T05:32:08;99289.85;;;8.84;68.82
77153;BME280;66124;51.146;17.072;2023-04-25T05:34:37;99289.80;;;8.89;68.57
77153;BME280;66124;51.146;17.072;2023-04-25T05:37:06;99286.05;;;8.91;68.35
77153;BME280;66124;51.146;17.072;2023-04-25T05:39:36;99280.85;;;8.93;68.38
77153;BME280;66124;51.146;17.072;2023-04-25T05:42:05;99283.67;;;8.97;68.30
77153;BME280;66124;51.146;17.072;2023-04-25T05:44:35;99286.33;;;9.01;67.90
77153;BME280;66124;51.146;17.072;2023-04-25T05:47:04;99287.91;;;9.01;67.64
77153;BME280;66124;51.146;17.072;2023-04-25T05:49:35;99287.52;;;8.99;67.31
77153;BME280;66124;51.146;17.072;2023-04-25T05:52:05;99284.69;;;8.97;67.34
77153;BME280;66124;51.146;17.072;2023-04-25T05:54:34;99286.39;;;8.96;67.50
77153;BME280;66124;51.146;17.072;2023-04-25T05:57:02;99285.17;;;8.97;67.29
77153;BME280;66124;51.146;17.072;2023-04-25T06:07:19;99286.58;;;9.17;67.02
77153;BME280;66124;51.146;17.072;2023-04-25T06:09:49;99289.05;;;9.21;66.87
77153;BME280;66124;51.146;17.072;2023-04-25T06:12:18;99293.41;;;9.27;66.74
77153;BME280;66124;51.146;17.072;2023-04-25T06:14:47;99288.34;;;9.30;66.48
77153;BME280;66124;51.146;17.072;2023-04-25T06:17:17;99291.40;;;9.35;66.47
77153;BME280;66124;51.146;17.072;2023-04-25T06:19:47;99288.10;;;9.39;66.13
77153;BME280;66124;51.146;17.072;2023-04-25T06:22:17;99282.67;;;9.42;65.61
77153;BME280;66124;51.146;17.072;2023-04-25T06:24:46;99285.94;;;9.44;65.42
77153;BME280;66124;51.146;17.072;2023-04-25T06:27:16;99288.02;;;9.45;65.40
77153;BME280;66124;51.146;17.072;2023-04-25T06:29:45;99286.65;;;9.49;65.44
77153;BME280;66124;51.146;17.072;2023-04-25T06:32:14;99283.29;;;9.56;65.38
77153;BME280;66124;51.146;17.072;2023-04-25T06:34:44;99289.27;;;9.64;65.13
77153;BME280;66124;51.146;17.072;2023-04-25T06:37:13;99286.58;;;9.70;65.12
77153;BME280;66124;51.146;17.072;2023-04-25T06:39:43;99287.27;;;9.75;64.72
77153;BME280;66124;51.146;17.072;2023-04-25T06:42:12;99286.11;;;9.83;64.55
77153;BME280;66124;51.146;17.072;2023-04-25T06:44:42;99285.27;;;9.91;63.92
77153;BME280;66124;51.146;17.072;2023-04-25T06:47:11;99284.05;;;9.98;63.85
77153;BME280;66124;51.146;17.072;2023-04-25T06:49:41;99284.31;;;10.05;63.49
77153;BME280;66124;51.146;17.072;2023-04-25T06:52:10;99282.41;;;10.11;63.74
77153;BME280;66124;51.146;17.072;2023-04-25T06:54:39;99283.58;;;10.20;63.59
77153;BME280;66124;51.146;17.072;2023-04-25T06:57:09;99279.33;;;10.27;63.14
77153;BME280;66124;51.146;17.072;2023-04-25T06:59:38;99277.15;;;10.31;62.87
77153;BME280;66124;51.146;17.072;2023-04-25T07:02:08;99277.39;;;10.37;62.96
77153;BME280;66124;51.146;17.072;2023-04-25T07:04:37;99279.02;;;10.51;62.98
77153;BME280;66124;51.146;17.072;2023-04-25T07:07:07;99276.89;;;10.62;62.55
77153;BME280;66124;51.146;17.072;2023-04-25T07:09:36;99275.48;;;10.72;62.45
77153;BME280;66124;51.146;17.072;2023-04-25T07:12:06;99273.98;;;10.77;61.79
77153;BME280;66124;51.146;17.072;2023-04-25T07:14:36;99273.27;;;10.76;61.27
77153;BME280;66124;51.146;17.072;2023-04-25T07:17:05;99270.04;;;10.70;60.97
77153;BME280;66124;51.146;17.072;2023-04-25T07:25:33;99272.86;;;10.58;60.36
77153;BME280;66124;51.146;17.072;2023-04-25T07:28:03;99274.09;;;10.56;60.04
77153;BME280;66124;51.146;17.072;2023-04-25T07:30:32;99273.60;;;10.57;60.07
77153;BME280;66124;51.146;17.072;2023-04-25T07:33:02;99274.86;;;10.58;59.71
77153;BME280;66124;51.146;17.072;2023-04-25T07:35:31;99276.00;;;10.56;59.64
77153;BME280;66124;51.146;17.072;2023-04-25T07:38:03;99275.98;;;10.50;59.36
77153;BME280;66124;51.146;17.072;2023-04-25T07:40:32;99280.37;;;10.49;59.42
77153;BME280;66124;51.146;17.072;2023-04-25T07:43:01;99279.20;;;10.46;58.92
77153;BME280;66124;51.146;17.072;2023-04-25T07:45:31;99280.89;;;10.44;58.89
77153;BME280;66124;51.146;17.072;2023-04-25T07:48:00;99276.77;;;10.43;59.13
77153;BME280;66124;51.146;17.072;2023-04-25T07:50:30;99278.38;;;10.42;58.97
77153;BME280;66124;51.146;17.072;2023-04-25T07:52:59;99278.54;;;10.42;59.34
77153;BME280;66124;51.146;17.072;2023-04-25T07:55:29;99273.15;;;10.46;59.38
77153;BME280;66124;51.146;17.072;2023-04-25T07:57:58;99275.34;;;10.54;59.37
77153;BME280;66124;51.146;17.072;2023-04-25T08:00:28;99278.23;;;10.60;58.73
77153;BME280;66124;51.146;17.072;2023-04-25T08:02:57;99276.45;;;10.63;58.91
77153;BME280;66124;51.146;17.072;2023-04-25T08:05:27;99274.90;;;10.68;59.10
77153;BME280;66124;51.146;17.072;2023-04-25T08:07:56;99276.32;;;10.73;59.25
77153;BME280;66124;51.146;17.072;2023-04-25T08:10:26;99272.67;;;10.76;59.23
77153;BME280;66124;51.146;17.072;2023-04-25T08:12:55;99277.25;;;10.78;59.08
77153;BME280;66124;51.146;17.072;2023-04-25T08:15:24;99277.21;;;10.81;59.32
77153;BME280;66124;51.146;17.072;2023-04-25T08:17:54;99277.09;;;10.83;59.34
77153;BME280;66124;51.146;17.072;2023-04-25T08:20:23;99285.01;;;10.84;59.38
77153;BME280;66124;51.146;17.072;2023-04-25T08:22:53;99286.67;;;10.81;59.07
77153;BME280;66124;51.146;17.072;2023-04-25T08:25:22;99285.57;;;10.79;59.50
77153;BME280;66124;51.146;17.072;2023-04-25T08:27:52;99285.61;;;10.80;59.82
77153;BME280;66124;51.146;17.072;2023-04-25T08:30:21;99287.06;;;10.83;59.83
77153;BME280;66124;51.146;17.072;2023-04-25T08:32:51;99285.04;;;10.91;59.79
77153;BME280;66124;51.146;17.072;2023-04-25T08:35:19;99286.98;;;10.96;59.84
77153;BME280;66124;51.146;17.072;2023-04-25T08:37:47;99289.17;;;11.01;59.88
77153;BME280;66124;51.146;17.072;2023-04-25T08:43:19;99294.52;;;11.15;59.36
77153;BME280;66124;51.146;17.072;2023-04-25T08:45:49;99299.16;;;11.17;58.57
77153;BME280;66124;51.146;17.072;2023-04-25T08:48:19;99296.30;;;11.19;58.49
77153;BME280;66124;51.146;17.072;2023-04-25T08:50:52;99300.46;;;11.19;58.55
77153;BME280;66124;51.146;17.072;2023-04-25T08:53:21;99295.23;;;11.19;58.05
77153;BME280;66124;51.146;17.072;2023-04-25T08:55:51;99293.45;;;11.14;58.22
77153;BME280;66124;51.146;17.072;2023-04-25T08:58:23;99294.41;;;11.16;58.19
77153;BME280;66124;51.146;17.072;2023-04-25T09:00:53;99294.21;;;11.17;58.15
77153;BME280;66124;51.146;17.072;2023-04-25T09:03:23;99296.09;;;11.22;58.00
77153;BME280;66124;51.146;17.072;2023-04-25T09:05:52;99296.66;;;11.29;57.93
77153;BME280;66124;51.146;17.072;2023-04-25T09:08:23;99294.74;;;11.42;58.24
77153;BME280;66124;51.146;17.072;2023-04-25T09:10:52;99298.15;;;11.54;57.87
77153;BME280;66124;51.146;17.072;2023-04-25T09:13:27;99301.81;;;11.62;57.90
77153;BME280;66124;51.146;17.072;2023-04-25T09:15:58;99298.33;;;11.70;57.99
77153;BME280;66124;51.146;17.072;2023-04-25T09:18:28;99290.00;;;11.79;58.03
77153;BME280;66124;51.146;17.072;2023-04-25T09:21:04;99291.07;;;11.86;57.77
77153;BME280;66124;51.146;17.072;2023-04-25T09:23:41;99299.33;;;11.94;57.37
77153;BME280;66124;51.146;17.072;2023-04-25T09:26:10;99295.65;;;11.97;57.05
77153;BME280;66124;51.146;17.072;2023-04-25T09:28:42;99295.23;;;12.00;57.18
77153;BME280;66124;51.146;17.072;2023-04-25T09:31:12;99301.55;;;11.99;56.90
77153;BME280;66124;51.146;17.072;2023-04-25T09:33:50;99301.35;;;11.98;57.35
77153;BME280;66124;51.146;17.072;2023-04-25T09:36:29;99301.40;;;12.02;57.22
77153;BME280;66124;51.146;17.072;2023-04-25T09:39:00;99306.89;;;12.09;57.52
77153;BME280;66124;51.146;17.072;2023-04-25T09:41:30;99308.80;;;12.10;57.18
77153;BME280;66124;51.146;17.072;2023-04-25T09:43:59;99310.42;;;12.05;56.75
77153;BME280;66124;51.146;17.072;2023-04-25T09:46:34;99310.86;;;11.96;56.80
77153;BME280;66124;51.146;17.072;2023-04-25T09:49:07;99308.62;;;11.87;56.87
77153;BME280;66124;51.146;17.072;2023-04-25T09:51:37;99310.87;;;11.85;57.26
77153;BME280;66124;51.146;17.072;2023-04-25T09:54:05;99306.36;;;11.85;57.15
77153;BME280;66124;51.146;17.072;2023-04-25T09:56:35;99312.71;;;11.92;57.09
77153;BME280;66124;51.146;17.072;2023-04-25T10:04:47;99312.16;;;12.20;57.18
77153;BME280;66124;51.146;17.072;2023-04-25T10:07:18;99315.09;;;12.39;56.76
77153;BME280;66124;51.146;17.072;2023-04-25T10:09:49;99319.68;;;12.53;55.79
77153;BME280;66124;51.146;17.072;2023-04-25T10:12:19;99317.94;;;12.54;54.54
77153;BME280;66124;51.146;17.072;2023-04-25T10:14:49;99317.70;;;12.52;54.48
77153;BME280;66124;51.146;17.072;2023-04-25T10:17:18;99314.89;;;12.53;54.55
77153;BME280;66124;51.146;17.072;2023-04-25T10:19:49;99315.02;;;12.51;54.10
77153;BME280;66124;51.146;17.072;2023-04-25T10:22:23;99310.83;;;12.47;54.00
77153;BME280;66124;51.146;17.072;2023-04-25T10:24:56;99313.24;;;12.50;53.46
77153;BME280;66124;51.146;17.072;2023-04-25T10:27:28;99313.41;;;12.50;53.17
77153;BME280;66124;51.146;17.072;2023-04-25T10:30:09;99310.17;;;12.48;53.33
77153;BME280;66124;51.146;17.072;2023-04-25T10:32:39;99309.21;;;12.49;52.99
77153;BME280;66124;51.146;17.072;2023-04-25T10:35:15;99305.01;;;12.53;53.29
77153;BME280;66124;51.146;17.072;2023-04-25T10:38:04;99305.13;;;12.64;53.61
77153;BME280;66124;51.146;17.072;2023-04-25T10:40:34;99307.44;;;12.79;53.20
77153;BME280;66124;51.146;17.072;2023-04-25T10:43:34;99297.70;;;12.82;52.91
77153;BME280;66124;51.146;17.072;2023-04-25T10:46:14;99306.77;;;12.98;52.56
77153;BME280;66124;51.146;17.072;2023-04-25T10:48:52;99308.31;;;12.98;52.32
77153;BME280;66124;51.146;17.072;2023-04-25T10:51:23;99301.36;;;12.92;51.89
77153;BME280;66124;51.146;17.072;2023-04-25T10:54:01;99303.89;;;12.87;51.78
77153;BME280;66124;51.146;17.072;2023-04-25T10:56:32;99303.35;;;12.93;51.55
77153;BME280;66124;51.146;17.072;2023-04-25T10:59:07;99298.20;;;13.06;51.51
77153;BME280;66124;51.146;17.072;2023-04-25T11:01:41;99295.06;;;13.24;51.38
77153;BME280;66124;51.146;17.072;2023-04-25T11:04:25;99290.80;;;13.39;51.46
77153;BME280;66124;51.146;17.072;2023-04-25T11:07:02;99293.13;;;13.60;51.33
77153;BME280;66124;51.146;17.072;2023-04-25T11:09:36;99280.09;;;13.77;50.52
77153;BME280;66124;51.146;17.072;2023-04-25T11:12:09;99281.69;;;13.85;50.10
77153;BME280;66124;51.146;17.072;2023-04-25T11:14:37;99280.83;;;13.86;49.70
77153;BME280;66124;51.146;17.072;2023-04-25T11:17:05;99283.90;;;13.79;49.33
77153;BME280;66124;51.146;17.072;2023-04-25T11:24:46;99283.07;;;13.83;49.54
77153;BME280;66124;51.146;17.072;2023-04-25T11:27:16;99282.35;;;13.82;49.65
77153;BME280;66124;51.146;17.072;2023-04-25T11:29:45;99284.06;;;13.84;49.69
77153;BME280;66124;51.146;17.072;2023-04-25T11:32:16;99281.56;;;13.86;49.75
77153;BME280;66124;51.146;17.072;2023-04-25T11:34:45;99282.71;;;13.91;49.43
77153;BME280;66124;51.146;17.072;2023-04-25T11:37:15;99285.56;;;13.98;49.05
77153;BME280;66124;51.146;17.072;2023-04-25T11:39:48;99286.71;;;14.04;48.20
77153;BME280;66124;51.146;17.072;2023-04-25T11:42:18;99288.48;;;14.02;47.75
77153;BME280;66124;51.146;17.072;2023-04-25T11:44:47;99291.43;;;13.96;47.40
77153;BME280;66124;51.146;17.072;2023-04-25T11:47:17;99293.56;;;13.89;46.86
77153;BME280;66124;51.146;17.072;2023-04-25T11:49:47;99290.85;;;13.81;46.45
77153;BME280;66124;51.146;17.072;2023-04-25T11:52:18;99297.96;;;13.70;46.45
77153;BME280;66124;51.146;17.072;2023-04-25T11:54:48;99299.77;;;13.61;46.40
77153;BME280;66124;51.146;17.072;2023-04-25T11:57:20;99299.58;;;13.56;46.78
77153;BME280;66124;51.146;17.072;2023-04-25T11:59:49;99301.46;;;13.55;46.49
77153;BME280;66124;51.146;17.072;2023-04-25T12:02:26;99301.11;;;13.51;46.39
77153;BME280;66124;51.146;17.072;2023-04-25T12:05:00;99303.42;;;13.45;46.76
77153;BME280;66124;51.146;17.072;2023-04-25T12:07:31;99296.96;;;13.41;46.92
77153;BME280;66124;51.146;17.072;2023-04-25T12:10:03;99297.70;;;13.43;46.86
77153;BME280;66124;51.146;17.072;2023-04-25T12:12:35;99296.19;;;13.46;47.02
77153;BME280;66124;51.146;17.072;2023-04-25T12:15:14;99295.46;;;13.52;46.61
77153;BME280;66124;51.146;17.072;2023-04-25T12:17:46;99297.92;;;13.54;46.44
77153;BME280;66124;51.146;17.072;2023-04-25T12:20:17;99298.38;;;13.51;46.57
77153;BME280;66124;51.146;17.072;2023-04-25T12:22:48;99296.73;;;13.52;47.17
77153;BME280;66124;51.146;17.072;2023-04-25T12:25:37;99299.22;;;13.60;47.33
77153;BME280;66124;51.146;17.072;2023-04-25T12:28:15;99303.27;;;13.68;46.92
77153;BME280;66124;51.146;17.072;2023-04-25T12:30:58;99303.83;;;13.66;46.24
77153;BME280;66124;51.146;17.072;2023-04-25T12:33:27;99310.70;;;13.63;46.23
77153;BME280;66124;51.146;17.072;2023-04-25T12:35:57;99307.73;;;13.60;46.29
77153;BME280;66124;51.146;17.072;2023-04-25T12:45:32;99305.34;;;13.79;46.36
77153;BME280;66124;51.146;17.072;2023-04-25T12:48:02;99313.48;;;13.80;46.14
77153;BME280;66124;51.146;17.072;2023-04-25T12:50:32;99308.97;;;13.71;46.13
77153;BME280;66124;51.146;17.072;2023-04-25T12:53:01;99310.63;;;13.59;46.07
77153;BME280;66124;51.146;17.072;2023-04-25T12:55:31;99308.75;;;13.48;46.47
77153;BME280;66124;51.146;17.072;2023-04-25T12:58:00;99307.60;;;13.37;46.28
77153;BME280;66124;51.146;17.072;2023-04-25T13:00:30;99303.64;;;13.31;46.68
77153;BME280;66124;51.146;17.072;2023-04-25T13:02:59;99306.48;;;13.25;46.49
77153;BME280;66124;51.146;17.072;2023-04-25T13:05:29;99300.95;;;13.17;46.56
77153;BME280;66124;51.146;17.072;2023-04-25T13:07:59;99300.89;;;13.15;46.68
77153;BME280;66124;51.146;17.072;2023-04-25T13:10:28;99305.19;;;13.16;46.80
77153;BME280;66124;51.146;17.072;2023-04-25T13:12:58;99303.09;;;13.20;46.81
77153;BME280;66124;51.146;17.072;2023-04-25T13:15:28;99302.17;;;13.26;46.54
77153;BME280;66124;51.146;17.072;2023-04-25T13:17:57;99295.89;;;13.50;46.44
77153;BME280;66124;51.146;17.072;2023-04-25T13:20:26;99293.31;;;14.20;46.46
77153;BME280;66124;51.146;17.072;2023-04-25T13:22:56;99291.86;;;15.11;44.99
77153;BME280;66124;51.146;17.072;2023-04-25T13:25:26;99288.66;;;15.65;44.33
77153;BME280;66124;51.146;17.072;2023-04-25T13:27:55;99293.90;;;15.87;43.98
77153;BME280;66124;51.146;17.072;2023-04-25T13:30:24;99298.58;;;15.87;43.09
77153;BME280;66124;51.146;17.072;2023-04-25T13:32:55;99299.36;;;15.63;42.84
77153;BME280;66124;51.146;17.072;2023-04-25T13:35:24;99305.96;;;15.33;42.80
77153;BME280;66124;51.146;17.072;2023-04-25T13:37:54;99305.69;;;15.05;43.03
77153;BME280;66124;51.146;17.072;2023-04-25T13:40:23;99302.20;;;14.74;43.02
77153;BME280;66124;51.146;17.072;2023-04-25T13:42:53;99305.84;;;14.44;43.32
77153;BME280;66124;51.146;17.072;2023-04-25T13:45:22;99303.04;;;14.15;43.76
77153;BME280;66124;51.146;17.072;2023-04-25T13:47:51;99309.86;;;13.89;44.05
77153;BME280;66124;51.146;17.072;2023-04-25T13:50:21;99317.04;;;13.68;44.31
77153;BME280;66124;51.146;17.072;2023-04-25T13:52:50;99314.45;;;13.52;44.96
77153;BME280;66124;51.146;17.072;2023-04-25T13:55:20;99316.91;;;13.44;45.45
77153;BME280;66124;51.146;17.072;2023-04-25T13:57:48;99314.48;;;13.41;45.73
77153;BME280;66124;51.146;17.072;2023-04-25T14:05:20;99314.48;;;13.73;46.22
77153;BME280;66124;51.146;17.072;2023-04-25T14:07:50;99308.98;;;14.00;46.25
77153;BME280;66124;51.146;17.072;2023-04-25T14:10:19;99313.38;;;14.27;45.97
77153;BME280;66124;51.146;17.072;2023-04-25T14:12:49;99311.23;;;14.49;45.16